Entebbe, Uganda

8:59 AM EAT on March 06, 2015 (GMT +0300)
Entebbe International | Change Station
CLOSE
Current Station
Airport
Location: Entebbe,
Elevation: 3789 ft
Nearby Weather Stations

Elev 3789 ft 0.04 °N, 32.44 °E | Updated 59 minutes ago

Mostly Cloudy
Mostly Cloudy
70 °F
Feels Like 70 °F
N
7
Wind Variable Wind from NNW

Today
High -- | Low -- °F
--% Chance of Precip.
Yesterday
High -- | Low -- °F
Precip. -- in
6:58 AM 7:04 PM
Full, 100% visible
Pressure 30.04 in
Visibility 6.2 miles
Clouds Few 1800 ft
Few 2000 ft
Mostly Cloudy 11000 ft
Dew Point 68 °F
Humidity 94%
Rainfall 0.00 in
Snow Depth Not available.
UV 1 out of 12
Pollen Not available.
Air Quality Not available.
Flu Activity Not available.
METAR HUEN 060500Z 34006KT 9999 FEW018 FEW020CB BKN110 21/20 Q1017

More Conditions Fewer Conditions

Pressure 30.04 in
Visibility 6.2 miles
Clouds Few 1800 ft
Few 2000 ft
Mostly Cloudy 11000 ft
Dew Point 68 °F
Humidity 94%
Rainfall 0.00 in
Snow Depth Not available.
UV 1 out of 12
Pollen Not available.
Air Quality Not available.
Flu Activity Not available.
METAR HUEN 060500Z 34006KT 9999 FEW018 FEW020CB BKN110 21/20 Q1017

More Conditions Fewer Conditions

10-Day Weather Forecast

Almanac

Astronomy

Mar. 06, 2015 Rise Set
Actual Time
Civil Twilight
Nautical Twilight
Astronomical Twilight
Moon
Length of Visible Light
Length of Day
Tomorrow will be .
, % of the Moon is Illuminated

Today's Extremes

Country Highs Country Lows

Community

WunderPhotos

Upload Photos

1,803,207 photos uploaded!

WunderBlogs® & News

Nearby

Air Quality

  Air Quality AQ Index Pollutant
Not available.

Snow Depth

Station Depth Elevation

Earthquake Activity

City Distance Mag. Time & Date
Minimum magnitude displayed is 2.5.

Coastal Water Temperatures

Place Temperature

Nearby Weather Stations